sensor_id;sensor_type;location;lat;lon;timestamp;P1;durP1;ratioP1;P2;durP2;ratioP2
7142;SDS011;3613;48.902;9.204;2023-06-22T00:01:58;9.27;;;7.47;;
7142;SDS011;3613;48.902;9.204;2023-06-22T00:04:24;9.67;;;7.30;;
7142;SDS011;3613;48.902;9.204;2023-06-22T00:06:50;12.07;;;8.63;;
7142;SDS011;3613;48.902;9.204;2023-06-22T00:09:18;12.10;;;7.80;;
7142;SDS011;3613;48.902;9.204;2023-06-22T00:11:44;11.80;;;8.00;;
7142;SDS011;3613;48.902;9.204;2023-06-22T00:14:10;9.87;;;8.27;;
7142;SDS011;3613;48.902;9.204;2023-06-22T00:16:36;10.53;;;7.90;;
7142;SDS011;3613;48.902;9.204;2023-06-22T00:19:04;9.83;;;8.17;;
7142;SDS011;3613;48.902;9.204;2023-06-22T00:21:30;9.73;;;7.33;;
7142;SDS011;3613;48.902;9.204;2023-06-22T00:23:56;9.83;;;7.83;;
7142;SDS011;3613;48.902;9.204;2023-06-22T00:26:22;8.43;;;7.57;;
7142;SDS011;3613;48.902;9.204;2023-06-22T00:28:48;9.10;;;7.53;;
7142;SDS011;3613;48.902;9.204;2023-06-22T00:31:14;9.63;;;8.03;;
7142;SDS011;3613;48.902;9.204;2023-06-22T00:33:39;10.70;;;7.90;;
7142;SDS011;3613;48.902;9.204;2023-06-22T00:36:05;8.80;;;7.90;;
7142;SDS011;3613;48.902;9.204;2023-06-22T00:38:38;9.57;;;8.30;;
7142;SDS011;3613;48.902;9.204;2023-06-22T00:41:05;9.13;;;8.13;;
7142;SDS011;3613;48.902;9.204;2023-06-22T00:43:33;10.50;;;7.33;;
7142;SDS011;3613;48.902;9.204;2023-06-22T00:46:03;9.27;;;8.30;;
7142;SDS011;3613;48.902;9.204;2023-06-22T00:48:28;12.27;;;8.53;;
7142;SDS011;3613;48.902;9.204;2023-06-22T00:50:54;10.67;;;8.50;;
7142;SDS011;3613;48.902;9.204;2023-06-22T00:53:21;10.47;;;8.20;;
7142;SDS011;3613;48.902;9.204;2023-06-22T00:55:46;11.53;;;8.13;;
7142;SDS011;3613;48.902;9.204;2023-06-22T00:58:16;10.60;;;8.13;;
7142;SDS011;3613;48.902;9.204;2023-06-22T01:00:46;9.40;;;8.40;;
7142;SDS011;3613;48.902;9.204;2023-06-22T01:03:12;11.73;;;9.07;;
7142;SDS011;3613;48.902;9.204;2023-06-22T01:05:38;10.57;;;8.80;;
7142;SDS011;3613;48.902;9.204;2023-06-22T01:11:15;9.73;;;8.33;;
7142;SDS011;3613;48.902;9.204;2023-06-22T01:13:48;12.33;;;8.60;;
7142;SDS011;3613;48.902;9.204;2023-06-22T01:16:25;11.90;;;8.63;;
7142;SDS011;3613;48.902;9.204;2023-06-22T01:18:55;11.33;;;9.10;;
7142;SDS011;3613;48.902;9.204;2023-06-22T01:21:30;11.10;;;9.23;;
7142;SDS011;3613;48.902;9.204;2023-06-22T01:29:47;16.20;;;9.57;;
7142;SDS011;3613;48.902;9.204;2023-06-22T01:32:17;10.53;;;8.37;;
7142;SDS011;3613;48.902;9.204;2023-06-22T01:34:43;12.40;;;9.23;;
7142;SDS011;3613;48.902;9.204;2023-06-22T01:37:11;12.17;;;9.37;;
7142;SDS011;3613;48.902;9.204;2023-06-22T01:39:38;12.63;;;9.40;;
7142;SDS011;3613;48.902;9.204;2023-06-22T01:42:04;13.07;;;9.40;;
7142;SDS011;3613;48.902;9.204;2023-06-22T01:44:33;11.70;;;9.17;;
7142;SDS011;3613;48.902;9.204;2023-06-22T01:47:02;12.07;;;8.80;;
7142;SDS011;3613;48.902;9.204;2023-06-22T01:49:28;13.60;;;9.63;;
7142;SDS011;3613;48.902;9.204;2023-06-22T01:51:54;11.73;;;9.90;;
7142;SDS011;3613;48.902;9.204;2023-06-22T01:54:20;15.60;;;10.47;;
7142;SDS011;3613;48.902;9.204;2023-06-22T01:56:48;11.73;;;9.60;;
7142;SDS011;3613;48.902;9.204;2023-06-22T02:02:09;14.03;;;10.10;;
7142;SDS011;3613;48.902;9.204;2023-06-22T02:04:48;13.77;;;9.90;;
7142;SDS011;3613;48.902;9.204;2023-06-22T02:07:31;10.60;;;9.07;;
7142;SDS011;3613;48.902;9.204;2023-06-22T02:10:01;13.43;;;9.43;;
7142;SDS011;3613;48.902;9.204;2023-06-22T02:12:32;10.10;;;8.97;;
7142;SDS011;3613;48.902;9.204;2023-06-22T02:15:02;11.10;;;9.40;;
7142;SDS011;3613;48.902;9.204;2023-06-22T02:17:29;13.90;;;9.67;;
7142;SDS011;3613;48.902;9.204;2023-06-22T02:19:58;11.50;;;9.80;;
7142;SDS011;3613;48.902;9.204;2023-06-22T02:22:24;13.43;;;9.63;;
7142;SDS011;3613;48.902;9.204;2023-06-22T02:24:50;12.53;;;9.70;;
7142;SDS011;3613;48.902;9.204;2023-06-22T02:27:15;10.40;;;9.30;;
7142;SDS011;3613;48.902;9.204;2023-06-22T02:29:41;14.43;;;9.80;;
7142;SDS011;3613;48.902;9.204;2023-06-22T02:32:07;12.83;;;9.47;;
7142;SDS011;3613;48.902;9.204;2023-06-22T02:34:33;15.10;;;10.03;;
7142;SDS011;3613;48.902;9.204;2023-06-22T02:36:58;12.40;;;10.60;;
7142;SDS011;3613;48.902;9.204;2023-06-22T02:39:27;12.60;;;10.20;;
7142;SDS011;3613;48.902;9.204;2023-06-22T02:41:55;14.37;;;10.37;;
7142;SDS011;3613;48.902;9.204;2023-06-22T02:44:21;13.40;;;10.60;;
7142;SDS011;3613;48.902;9.204;2023-06-22T02:46:48;12.10;;;9.67;;
7142;SDS011;3613;48.902;9.204;2023-06-22T02:49:13;11.60;;;10.00;;
7142;SDS011;3613;48.902;9.204;2023-06-22T02:51:41;14.90;;;10.87;;
7142;SDS011;3613;48.902;9.204;2023-06-22T02:54:10;15.60;;;10.60;;
7142;SDS011;3613;48.902;9.204;2023-06-22T02:56:36;13.17;;;10.00;;
7142;SDS011;3613;48.902;9.204;2023-06-22T02:59:04;12.63;;;9.93;;
7142;SDS011;3613;48.902;9.204;2023-06-22T03:01:29;12.97;;;10.53;;
7142;SDS011;3613;48.902;9.204;2023-06-22T03:04:02;14.43;;;11.40;;
7142;SDS011;3613;48.902;9.204;2023-06-22T03:06:28;12.77;;;10.43;;
7142;SDS011;3613;48.902;9.204;2023-06-22T03:08:59;11.53;;;9.93;;
7142;SDS011;3613;48.902;9.204;2023-06-22T03:11:25;14.13;;;10.77;;
7142;SDS011;3613;48.902;9.204;2023-06-22T03:13:56;12.63;;;10.80;;
7142;SDS011;3613;48.902;9.204;2023-06-22T03:16:22;13.03;;;10.27;;
7142;SDS011;3613;48.902;9.204;2023-06-22T03:18:47;13.43;;;9.90;;
7142;SDS011;3613;48.902;9.204;2023-06-22T03:21:14;15.23;;;10.60;;
7142;SDS011;3613;48.902;9.204;2023-06-22T03:23:40;14.50;;;9.93;;
7142;SDS011;3613;48.902;9.204;2023-06-22T03:26:09;13.07;;;10.70;;
7142;SDS011;3613;48.902;9.204;2023-06-22T03:28:35;12.30;;;10.40;;
7142;SDS011;3613;48.902;9.204;2023-06-22T03:31:01;15.23;;;10.87;;
7142;SDS011;3613;48.902;9.204;2023-06-22T03:33:27;12.83;;;10.57;;
7142;SDS011;3613;48.902;9.204;2023-06-22T03:35:52;16.40;;;10.17;;
7142;SDS011;3613;48.902;9.204;2023-06-22T03:38:18;13.20;;;10.80;;
7142;SDS011;3613;48.902;9.204;2023-06-22T03:40:46;14.90;;;10.30;;
7142;SDS011;3613;48.902;9.204;2023-06-22T03:43:12;14.07;;;10.40;;
7142;SDS011;3613;48.902;9.204;2023-06-22T03:45:38;14.03;;;10.53;;
7142;SDS011;3613;48.902;9.204;2023-06-22T03:48:06;13.63;;;10.67;;
7142;SDS011;3613;48.902;9.204;2023-06-22T03:50:32;14.00;;;10.10;;
7142;SDS011;3613;48.902;9.204;2023-06-22T03:52:58;11.53;;;10.13;;
7142;SDS011;3613;48.902;9.204;2023-06-22T03:55:23;13.83;;;9.90;;
7142;SDS011;3613;48.902;9.204;2023-06-22T03:57:49;12.30;;;10.30;;
7142;SDS011;3613;48.902;9.204;2023-06-22T04:00:15;13.10;;;10.40;;
7142;SDS011;3613;48.902;9.204;2023-06-22T04:02:41;13.57;;;9.90;;
7142;SDS011;3613;48.902;9.204;2023-06-22T04:05:11;12.03;;;9.50;;
7142;SDS011;3613;48.902;9.204;2023-06-22T04:07:37;13.83;;;10.57;;
7142;SDS011;3613;48.902;9.204;2023-06-22T04:10:03;12.30;;;9.27;;
7142;SDS011;3613;48.902;9.204;2023-06-22T04:12:29;13.87;;;10.13;;
7142;SDS011;3613;48.902;9.204;2023-06-22T04:14:58;13.77;;;9.83;;
7142;SDS011;3613;48.902;9.204;2023-06-22T04:17:23;13.03;;;9.47;;
7142;SDS011;3613;48.902;9.204;2023-06-22T04:19:50;14.43;;;9.27;;
7142;SDS011;3613;48.902;9.204;2023-06-22T04:22:16;14.37;;;9.17;;
7142;SDS011;3613;48.902;9.204;2023-06-22T04:24:42;11.87;;;8.40;;
7142;SDS011;3613;48.902;9.204;2023-06-22T04:27:09;13.60;;;8.03;;
7142;SDS011;3613;48.902;9.204;2023-06-22T04:29:35;12.17;;;8.53;;
7142;SDS011;3613;48.902;9.204;2023-06-22T04:32:01;15.13;;;9.13;;
7142;SDS011;3613;48.902;9.204;2023-06-22T04:34:31;10.27;;;8.00;;
7142;SDS011;3613;48.902;9.204;2023-06-22T04:36:57;12.57;;;8.27;;
7142;SDS011;3613;48.902;9.204;2023-06-22T04:39:23;12.17;;;8.60;;
7142;SDS011;3613;48.902;9.204;2023-06-22T04:41:51;13.53;;;8.77;;
7142;SDS011;3613;48.902;9.204;2023-06-22T04:44:25;12.23;;;8.47;;
7142;SDS011;3613;48.902;9.204;2023-06-22T04:46:51;13.70;;;8.40;;
7142;SDS011;3613;48.902;9.204;2023-06-22T04:49:19;9.00;;;7.93;;
7142;SDS011;3613;48.902;9.204;2023-06-22T04:51:48;10.43;;;8.30;;
7142;SDS011;3613;48.902;9.204;2023-06-22T04:54:16;13.10;;;9.30;;
7142;SDS011;3613;48.902;9.204;2023-06-22T04:56:44;10.27;;;9.07;;
7142;SDS011;3613;48.902;9.204;2023-06-22T04:59:15;11.90;;;8.57;;
7142;SDS011;3613;48.902;9.204;2023-06-22T05:01:43;13.57;;;9.50;;
7142;SDS011;3613;48.902;9.204;2023-06-22T05:04:11;15.47;;;9.87;;
7142;SDS011;3613;48.902;9.204;2023-06-22T05:06:40;10.37;;;8.37;;
7142;SDS011;3613;48.902;9.204;2023-06-22T05:09:08;10.93;;;8.20;;
7142;SDS011;3613;48.902;9.204;2023-06-22T05:11:37;12.07;;;8.93;;
7142;SDS011;3613;48.902;9.204;2023-06-22T05:14:05;11.20;;;8.60;;
7142;SDS011;3613;48.902;9.204;2023-06-22T05:16:34;10.87;;;8.53;;
7142;SDS011;3613;48.902;9.204;2023-06-22T05:19:01;12.87;;;9.17;;
7142;SDS011;3613;48.902;9.204;2023-06-22T05:21:30;12.97;;;8.97;;
7142;SDS011;3613;48.902;9.204;2023-06-22T05:23:56;12.27;;;9.03;;
7142;SDS011;3613;48.902;9.204;2023-06-22T05:26:25;12.30;;;9.03;;
7142;SDS011;3613;48.902;9.204;2023-06-22T05:28:51;12.10;;;9.07;;
7142;SDS011;3613;48.902;9.204;2023-06-22T05:31:18;10.23;;;8.63;;
7142;SDS011;3613;48.902;9.204;2023-06-22T05:33:50;11.10;;;8.97;;
7142;SDS011;3613;48.902;9.204;2023-06-22T05:36:17;13.87;;;9.57;;
7142;SDS011;3613;48.902;9.204;2023-06-22T05:38:45;10.37;;;9.07;;
7142;SDS011;3613;48.902;9.204;2023-06-22T05:41:13;12.57;;;9.33;;
7142;SDS011;3613;48.902;9.204;2023-06-22T05:43:42;11.50;;;9.00;;
7142;SDS011;3613;48.902;9.204;2023-06-22T05:46:08;14.13;;;9.60;;
7142;SDS011;3613;48.902;9.204;2023-06-22T05:48:36;9.90;;;8.90;;
7142;SDS011;3613;48.902;9.204;2023-06-22T05:51:02;10.63;;;8.13;;
7142;SDS011;3613;48.902;9.204;2023-06-22T05:53:27;11.40;;;8.97;;
7142;SDS011;3613;48.902;9.204;2023-06-22T05:55:53;11.43;;;8.63;;
7142;SDS011;3613;48.902;9.204;2023-06-22T05:58:22;9.50;;;8.50;;
7142;SDS011;3613;48.902;9.204;2023-06-22T06:00:47;10.70;;;8.40;;
7142;SDS011;3613;48.902;9.204;2023-06-22T06:03:13;9.87;;;8.87;;
7142;SDS011;3613;48.902;9.204;2023-06-22T06:05:42;11.33;;;10.17;;
7142;SDS011;3613;48.902;9.204;2023-06-22T06:08:08;9.87;;;8.53;;
7142;SDS011;3613;48.902;9.204;2023-06-22T06:10:38;9.27;;;8.10;;
7142;SDS011;3613;48.902;9.204;2023-06-22T06:13:04;9.20;;;7.93;;
7142;SDS011;3613;48.902;9.204;2023-06-22T06:15:30;11.63;;;8.37;;
7142;SDS011;3613;48.902;9.204;2023-06-22T06:17:57;9.00;;;7.60;;
7142;SDS011;3613;48.902;9.204;2023-06-22T06:20:24;9.93;;;7.30;;
7142;SDS011;3613;48.902;9.204;2023-06-22T06:22:51;9.40;;;8.00;;
7142;SDS011;3613;48.902;9.204;2023-06-22T06:25:19;10.00;;;7.73;;
7142;SDS011;3613;48.902;9.204;2023-06-22T06:27:47;8.10;;;7.30;;
7142;SDS011;3613;48.902;9.204;2023-06-22T06:30:15;10.10;;;7.43;;
7142;SDS011;3613;48.902;9.204;2023-06-22T06:32:42;7.70;;;6.77;;
7142;SDS011;3613;48.902;9.204;2023-06-22T06:35:11;9.93;;;7.60;;
7142;SDS011;3613;48.902;9.204;2023-06-22T06:37:38;7.82;;;6.93;;
7142;SDS011;3613;48.902;9.204;2023-06-22T06:40:06;9.57;;;7.78;;
7142;SDS011;3613;48.902;9.204;2023-06-22T06:42:38;9.30;;;6.63;;
7142;SDS011;3613;48.902;9.204;2023-06-22T06:45:16;8.05;;;6.70;;
7142;SDS011;3613;48.902;9.204;2023-06-22T06:47:42;6.95;;;6.15;;
7142;SDS011;3613;48.902;9.204;2023-06-22T06:50:11;8.93;;;6.05;;
7142;SDS011;3613;48.902;9.204;2023-06-22T06:52:37;6.43;;;5.82;;
7142;SDS011;3613;48.902;9.204;2023-06-22T06:55:03;10.82;;;6.97;;
7142;SDS011;3613;48.902;9.204;2023-06-22T06:57:30;8.13;;;6.50;;
7142;SDS011;3613;48.902;9.204;2023-06-22T06:59:56;8.15;;;6.72;;
7142;SDS011;3613;48.902;9.204;2023-06-22T07:02:22;8.70;;;6.47;;
7142;SDS011;3613;48.902;9.204;2023-06-22T07:04:48;8.43;;;6.20;;
7142;SDS011;3613;48.902;9.204;2023-06-22T07:07:15;8.15;;;6.40;;
7142;SDS011;3613;48.902;9.204;2023-06-22T07:09:41;7.75;;;6.38;;
7142;SDS011;3613;48.902;9.204;2023-06-22T07:12:07;7.07;;;6.35;;
7142;SDS011;3613;48.902;9.204;2023-06-22T07:14:36;6.90;;;6.20;;
7142;SDS011;3613;48.902;9.204;2023-06-22T07:17:01;7.43;;;6.40;;
7142;SDS011;3613;48.902;9.204;2023-06-22T07:19:27;7.22;;;6.53;;
7142;SDS011;3613;48.902;9.204;2023-06-22T07:21:53;10.10;;;6.60;;
7142;SDS011;3613;48.902;9.204;2023-06-22T07:24:23;7.18;;;6.22;;
7142;SDS011;3613;48.902;9.204;2023-06-22T07:26:51;8.48;;;6.60;;
7142;SDS011;3613;48.902;9.204;2023-06-22T07:29:17;8.90;;;6.30;;
7142;SDS011;3613;48.902;9.204;2023-06-22T07:31:44;8.10;;;5.80;;
7142;SDS011;3613;48.902;9.204;2023-06-22T07:34:10;8.43;;;6.43;;
7142;SDS011;3613;48.902;9.204;2023-06-22T07:36:36;6.93;;;5.80;;
7142;SDS011;3613;48.902;9.204;2023-06-22T07:39:02;8.43;;;5.97;;
7142;SDS011;3613;48.902;9.204;2023-06-22T07:41:30;9.65;;;5.63;;
7142;SDS011;3613;48.902;9.204;2023-06-22T07:43:56;8.60;;;6.20;;
7142;SDS011;3613;48.902;9.204;2023-06-22T07:46:24;6.32;;;5.57;;
7142;SDS011;3613;48.902;9.204;2023-06-22T07:48:50;7.38;;;6.28;;
7142;SDS011;3613;48.902;9.204;2023-06-22T07:51:16;6.97;;;6.30;;
7142;SDS011;3613;48.902;9.204;2023-06-22T07:53:42;10.20;;;6.30;;
7142;SDS011;3613;48.902;9.204;2023-06-22T07:56:12;8.45;;;6.03;;
7142;SDS011;3613;48.902;9.204;2023-06-22T07:58:43;6.82;;;6.13;;
7142;SDS011;3613;48.902;9.204;2023-06-22T08:01:09;7.40;;;5.75;;
7142;SDS011;3613;48.902;9.204;2023-06-22T08:03:36;7.40;;;5.40;;
7142;SDS011;3613;48.902;9.204;2023-06-22T08:06:04;7.28;;;5.72;;
7142;SDS011;3613;48.902;9.204;2023-06-22T08:08:31;6.72;;;5.65;;
7142;SDS011;3613;48.902;9.204;2023-06-22T08:11:01;6.57;;;5.88;;
7142;SDS011;3613;48.902;9.204;2023-06-22T08:13:29;7.47;;;5.57;;
7142;SDS011;3613;48.902;9.204;2023-06-22T08:15:59;6.50;;;5.78;;
7142;SDS011;3613;48.902;9.204;2023-06-22T08:18:29;6.78;;;5.85;;
7142;SDS011;3613;48.902;9.204;2023-06-22T08:20:57;5.85;;;5.20;;
7142;SDS011;3613;48.902;9.204;2023-06-22T08:23:23;8.10;;;6.03;;
7142;SDS011;3613;48.902;9.204;2023-06-22T08:25:52;7.13;;;5.95;;
7142;SDS011;3613;48.902;9.204;2023-06-22T08:28:17;6.75;;;5.53;;
7142;SDS011;3613;48.902;9.204;2023-06-22T08:30:43;7.45;;;5.90;;
7142;SDS011;3613;48.902;9.204;2023-06-22T08:33:09;7.13;;;5.82;;
7142;SDS011;3613;48.902;9.204;2023-06-22T08:35:35;7.57;;;5.32;;
7142;SDS011;3613;48.902;9.204;2023-06-22T08:38:01;10.38;;;6.60;;
7142;SDS011;3613;48.902;9.204;2023-06-22T08:40:29;8.88;;;6.07;;
7142;SDS011;3613;48.902;9.204;2023-06-22T08:42:54;6.80;;;5.72;;
7142;SDS011;3613;48.902;9.204;2023-06-22T08:45:20;6.78;;;5.70;;
7142;SDS011;3613;48.902;9.204;2023-06-22T08:47:46;6.78;;;5.30;;
7142;SDS011;3613;48.902;9.204;2023-06-22T08:50:12;10.23;;;6.05;;
7142;SDS011;3613;48.902;9.204;2023-06-22T08:52:41;6.97;;;5.85;;
7142;SDS011;3613;48.902;9.204;2023-06-22T08:55:07;9.48;;;6.00;;
7142;SDS011;3613;48.902;9.204;2023-06-22T08:57:34;7.57;;;4.80;;
7142;SDS011;3613;48.902;9.204;2023-06-22T09:00:02;7.20;;;5.55;;
7142;SDS011;3613;48.902;9.204;2023-06-22T09:02:36;10.68;;;5.55;;
7142;SDS011;3613;48.902;9.204;2023-06-22T09:05:03;8.38;;;4.90;;
7142;SDS011;3613;48.902;9.204;2023-06-22T09:07:29;5.93;;;5.15;;
7142;SDS011;3613;48.902;9.204;2023-06-22T09:09:55;6.35;;;4.85;;
7142;SDS011;3613;48.902;9.204;2023-06-22T09:12:21;8.57;;;5.13;;
7142;SDS011;3613;48.902;9.204;2023-06-22T09:14:50;8.90;;;5.53;;
7142;SDS011;3613;48.902;9.204;2023-06-22T09:17:16;5.85;;;4.93;;
7142;SDS011;3613;48.902;9.204;2023-06-22T09:19:42;8.80;;;5.80;;
7142;SDS011;3613;48.902;9.204;2023-06-22T09:22:08;10.13;;;5.75;;
7142;SDS011;3613;48.902;9.204;2023-06-22T09:24:36;9.82;;;6.43;;
7142;SDS011;3613;48.902;9.204;2023-06-22T09:27:02;8.60;;;5.43;;
7142;SDS011;3613;48.902;9.204;2023-06-22T09:29:30;7.53;;;5.78;;
7142;SDS011;3613;48.902;9.204;2023-06-22T09:31:59;8.88;;;5.60;;
7142;SDS011;3613;48.902;9.204;2023-06-22T09:34:27;8.15;;;5.80;;
7142;SDS011;3613;48.902;9.204;2023-06-22T09:36:56;6.93;;;5.57;;
7142;SDS011;3613;48.902;9.204;2023-06-22T09:39:22;9.27;;;5.57;;
7142;SDS011;3613;48.902;9.204;2023-06-22T09:41:47;7.72;;;5.43;;
7142;SDS011;3613;48.902;9.204;2023-06-22T09:44:14;7.88;;;5.63;;
7142;SDS011;3613;48.902;9.204;2023-06-22T09:46:40;8.98;;;6.38;;
7142;SDS011;3613;48.902;9.204;2023-06-22T09:49:05;6.65;;;5.13;;
7142;SDS011;3613;48.902;9.204;2023-06-22T09:51:32;8.27;;;5.47;;
7142;SDS011;3613;48.902;9.204;2023-06-22T09:53:57;7.82;;;5.95;;
7142;SDS011;3613;48.902;9.204;2023-06-22T09:56:25;9.10;;;5.78;;
7142;SDS011;3613;48.902;9.204;2023-06-22T09:58:53;9.05;;;6.00;;
7142;SDS011;3613;48.902;9.204;2023-06-22T10:01:19;7.80;;;5.57;;
7142;SDS011;3613;48.902;9.204;2023-06-22T10:03:47;8.27;;;5.82;;
7142;SDS011;3613;48.902;9.204;2023-06-22T10:06:14;9.13;;;5.78;;
7142;SDS011;3613;48.902;9.204;2023-06-22T10:08:42;8.88;;;5.82;;
7142;SDS011;3613;48.902;9.204;2023-06-22T10:11:08;8.32;;;5.85;;
7142;SDS011;3613;48.902;9.204;2023-06-22T10:13:36;11.60;;;5.70;;
7142;SDS011;3613;48.902;9.204;2023-06-22T10:16:02;9.73;;;5.78;;
7142;SDS011;3613;48.902;9.204;2023-06-22T10:18:27;11.38;;;6.15;;
7142;SDS011;3613;48.902;9.204;2023-06-22T10:20:53;10.63;;;6.03;;
7142;SDS011;3613;48.902;9.204;2023-06-22T10:23:19;10.18;;;5.80;;
7142;SDS011;3613;48.902;9.204;2023-06-22T10:25:45;9.23;;;5.80;;
7142;SDS011;3613;48.902;9.204;2023-06-22T10:28:11;8.07;;;5.70;;
7142;SDS011;3613;48.902;9.204;2023-06-22T10:30:40;8.68;;;5.82;;
7142;SDS011;3613;48.902;9.204;2023-06-22T10:33:06;9.82;;;5.75;;
7142;SDS011;3613;48.902;9.204;2023-06-22T10:35:35;7.60;;;5.53;;
7142;SDS011;3613;48.902;9.204;2023-06-22T10:38:02;8.48;;;5.32;;
7142;SDS011;3613;48.902;9.204;2023-06-22T10:40:31;7.88;;;5.65;;
7142;SDS011;3613;48.902;9.204;2023-06-22T10:42:57;9.63;;;5.43;;
7142;SDS011;3613;48.902;9.204;2023-06-22T10:45:25;8.98;;;5.50;;
7142;SDS011;3613;48.902;9.204;2023-06-22T10:47:52;7.57;;;5.68;;
7142;SDS011;3613;48.902;9.204;2023-06-22T10:50:20;9.30;;;5.32;;
7142;SDS011;3613;48.902;9.204;2023-06-22T10:52:48;9.00;;;5.80;;
7142;SDS011;3613;48.902;9.204;2023-06-22T10:55:17;8.18;;;5.28;;
7142;SDS011;3613;48.902;9.204;2023-06-22T10:57:42;7.93;;;5.18;;
7142;SDS011;3613;48.902;9.204;2023-06-22T11:00:12;8.60;;;5.72;;
7142;SDS011;3613;48.902;9.204;2023-06-22T11:02:38;11.38;;;6.38;;
7142;SDS011;3613;48.902;9.204;2023-06-22T11:05:07;8.93;;;5.63;;
7142;SDS011;3613;48.902;9.204;2023-06-22T11:07:34;10.10;;;5.72;;
7142;SDS011;3613;48.902;9.204;2023-06-22T11:10:00;9.82;;;5.25;;
7142;SDS011;3613;48.902;9.204;2023-06-22T11:12:26;14.38;;;5.40;;
7142;SDS011;3613;48.902;9.204;2023-06-22T11:14:54;7.78;;;5.50;;
7142;SDS011;3613;48.902;9.204;2023-06-22T11:17:22;9.93;;;5.63;;
7142;SDS011;3613;48.902;9.204;2023-06-22T11:19:51;9.38;;;5.47;;
7142;SDS011;3613;48.902;9.204;2023-06-22T11:22:21;11.07;;;5.50;;
7142;SDS011;3613;48.902;9.204;2023-06-22T11:24:47;8.60;;;5.50;;
7142;SDS011;3613;48.902;9.204;2023-06-22T11:27:13;8.20;;;5.05;;
7142;SDS011;3613;48.902;9.204;2023-06-22T11:29:41;8.07;;;5.32;;
7142;SDS011;3613;48.902;9.204;2023-06-22T11:32:07;10.48;;;5.72;;
7142;SDS011;3613;48.902;9.204;2023-06-22T11:34:32;10.00;;;6.22;;
7142;SDS011;3613;48.902;9.204;2023-06-22T11:36:58;8.15;;;5.28;;
7142;SDS011;3613;48.902;9.204;2023-06-22T11:39:26;8.80;;;5.72;;
7142;SDS011;3613;48.902;9.204;2023-06-22T11:41:55;10.60;;;5.28;;
7142;SDS011;3613;48.902;9.204;2023-06-22T11:44:20;9.40;;;5.90;;
7142;SDS011;3613;48.902;9.204;2023-06-22T11:46:48;10.88;;;5.70;;
7142;SDS011;3613;48.902;9.204;2023-06-22T11:49:16;10.32;;;5.70;;
7142;SDS011;3613;48.902;9.204;2023-06-22T11:51:42;11.98;;;5.38;;
7142;SDS011;3613;48.902;9.204;2023-06-22T11:54:08;9.82;;;5.78;;
7142;SDS011;3613;48.902;9.204;2023-06-22T11:56:34;11.27;;;5.80;;
7142;SDS011;3613;48.902;9.204;2023-06-22T11:59:00;10.30;;;5.95;;
7142;SDS011;3613;48.902;9.204;2023-06-22T12:01:28;6.60;;;4.75;;
7142;SDS011;3613;48.902;9.204;2023-06-22T12:03:58;10.35;;;6.07;;
7142;SDS011;3613;48.902;9.204;2023-06-22T12:06:24;10.35;;;5.78;;
7142;SDS011;3613;48.902;9.204;2023-06-22T12:08:50;11.57;;;5.90;;
7142;SDS011;3613;48.902;9.204;2023-06-22T12:11:15;9.88;;;5.78;;
7142;SDS011;3613;48.902;9.204;2023-06-22T12:13:41;11.65;;;5.60;;
7142;SDS011;3613;48.902;9.204;2023-06-22T12:16:07;11.18;;;6.60;;
7142;SDS011;3613;48.902;9.204;2023-06-22T12:18:33;9.88;;;6.13;;
7142;SDS011;3613;48.902;9.204;2023-06-22T12:20:58;7.95;;;5.70;;
7142;SDS011;3613;48.902;9.204;2023-06-22T12:23:24;9.57;;;5.93;;
7142;SDS011;3613;48.902;9.204;2023-06-22T12:25:52;10.40;;;5.38;;
7142;SDS011;3613;48.902;9.204;2023-06-22T12:28:18;8.68;;;5.30;;
7142;SDS011;3613;48.902;9.204;2023-06-22T12:30:44;8.85;;;5.50;;
7142;SDS011;3613;48.902;9.204;2023-06-22T12:33:10;7.82;;;5.65;;
7142;SDS011;3613;48.902;9.204;2023-06-22T12:35:36;10.48;;;5.57;;
7142;SDS011;3613;48.902;9.204;2023-06-22T12:38:02;8.88;;;5.47;;
7142;SDS011;3613;48.902;9.204;2023-06-22T12:40:28;11.10;;;5.60;;
7142;SDS011;3613;48.902;9.204;2023-06-22T12:42:54;10.68;;;5.68;;
7142;SDS011;3613;48.902;9.204;2023-06-22T12:45:22;11.50;;;5.75;;
7142;SDS011;3613;48.902;9.204;2023-06-22T12:47:48;8.55;;;5.90;;
7142;SDS011;3613;48.902;9.204;2023-06-22T12:50:14;8.10;;;5.38;;
7142;SDS011;3613;48.902;9.204;2023-06-22T12:52:42;9.90;;;5.90;;
7142;SDS011;3613;48.902;9.204;2023-06-22T12:55:08;7.88;;;5.57;;
7142;SDS011;3613;48.902;9.204;2023-06-22T12:57:34;10.02;;;6.25;;
7142;SDS011;3613;48.902;9.204;2023-06-22T12:59:59;7.93;;;5.97;;
7142;SDS011;3613;48.902;9.204;2023-06-22T13:02:25;11.23;;;5.68;;
7142;SDS011;3613;48.902;9.204;2023-06-22T13:04:54;10.43;;;6.13;;
7142;SDS011;3613;48.902;9.204;2023-06-22T13:07:19;10.93;;;6.22;;
7142;SDS011;3613;48.902;9.204;2023-06-22T13:09:45;10.30;;;6.35;;
7142;SDS011;3613;48.902;9.204;2023-06-22T13:12:11;10.60;;;6.55;;
7142;SDS011;3613;48.902;9.204;2023-06-22T13:14:40;11.40;;;6.68;;
7142;SDS011;3613;48.902;9.204;2023-06-22T13:17:05;11.82;;;6.57;;
7142;SDS011;3613;48.902;9.204;2023-06-22T13:19:31;10.48;;;6.80;;
7142;SDS011;3613;48.902;9.204;2023-06-22T13:21:57;12.30;;;6.93;;
7142;SDS011;3613;48.902;9.204;2023-06-22T13:24:24;10.95;;;6.75;;
7142;SDS011;3613;48.902;9.204;2023-06-22T13:26:52;11.48;;;6.68;;
7142;SDS011;3613;48.902;9.204;2023-06-22T13:29:18;12.10;;;5.65;;
7142;SDS011;3613;48.902;9.204;2023-06-22T13:31:47;12.02;;;6.57;;
7142;SDS011;3613;48.902;9.204;2023-06-22T13:34:13;10.35;;;6.05;;
7142;SDS011;3613;48.902;9.204;2023-06-22T13:36:39;11.90;;;7.07;;
7142;SDS011;3613;48.902;9.204;2023-06-22T13:39:05;12.38;;;6.88;;
7142;SDS011;3613;48.902;9.204;2023-06-22T13:41:31;10.40;;;7.40;;
7142;SDS011;3613;48.902;9.204;2023-06-22T13:43:57;13.85;;;7.13;;
7142;SDS011;3613;48.902;9.204;2023-06-22T13:46:23;11.32;;;6.78;;
7142;SDS011;3613;48.902;9.204;2023-06-22T13:48:51;12.70;;;6.88;;
7142;SDS011;3613;48.902;9.204;2023-06-22T13:51:19;9.07;;;6.55;;
7142;SDS011;3613;48.902;9.204;2023-06-22T13:53:44;9.77;;;6.22;;
7142;SDS011;3613;48.902;9.204;2023-06-22T13:56:10;9.52;;;5.85;;
7142;SDS011;3613;48.902;9.204;2023-06-22T13:58:37;9.15;;;5.97;;
7142;SDS011;3613;48.902;9.204;2023-06-22T14:01:02;8.50;;;5.88;;
7142;SDS011;3613;48.902;9.204;2023-06-22T14:03:28;9.80;;;6.50;;
7142;SDS011;3613;48.902;9.204;2023-06-22T14:05:56;11.93;;;6.18;;
7142;SDS011;3613;48.902;9.204;2023-06-22T14:08:23;8.88;;;6.00;;
7142;SDS011;3613;48.902;9.204;2023-06-22T14:10:51;11.57;;;6.07;;
7142;SDS011;3613;48.902;9.204;2023-06-22T14:13:18;13.55;;;7.20;;
7142;SDS011;3613;48.902;9.204;2023-06-22T14:15:44;11.90;;;6.50;;
7142;SDS011;3613;48.902;9.204;2023-06-22T14:18:13;9.07;;;6.22;;
7142;SDS011;3613;48.902;9.204;2023-06-22T14:20:39;13.15;;;6.18;;
7142;SDS011;3613;48.902;9.204;2023-06-22T14:23:05;12.80;;;6.70;;
7142;SDS011;3613;48.902;9.204;2023-06-22T14:25:31;11.85;;;7.10;;
7142;SDS011;3613;48.902;9.204;2023-06-22T14:27:59;11.45;;;6.80;;
7142;SDS011;3613;48.902;9.204;2023-06-22T14:30:27;13.52;;;6.30;;
7142;SDS011;3613;48.902;9.204;2023-06-22T14:32:53;11.90;;;6.30;;
7142;SDS011;3613;48.902;9.204;2023-06-22T14:35:18;11.82;;;5.55;;
7142;SDS011;3613;48.902;9.204;2023-06-22T14:37:46;11.23;;;6.22;;
7142;SDS011;3613;48.902;9.204;2023-06-22T14:40:14;10.32;;;5.85;;
7142;SDS011;3613;48.902;9.204;2023-06-22T14:42:39;11.27;;;6.20;;
7142;SDS011;3613;48.902;9.204;2023-06-22T14:45:05;8.85;;;5.90;;
7142;SDS011;3613;48.902;9.204;2023-06-22T14:47:31;10.18;;;5.40;;
7142;SDS011;3613;48.902;9.204;2023-06-22T14:49:57;13.05;;;6.35;;
7142;SDS011;3613;48.902;9.204;2023-06-22T14:52:26;9.93;;;5.43;;
7142;SDS011;3613;48.902;9.204;2023-06-22T14:54:52;8.77;;;5.22;;
7142;SDS011;3613;48.902;9.204;2023-06-22T14:57:18;11.18;;;5.32;;
7142;SDS011;3613;48.902;9.204;2023-06-22T14:59:48;9.93;;;5.43;;
7142;SDS011;3613;48.902;9.204;2023-06-22T15:02:16;9.32;;;5.43;;
7142;SDS011;3613;48.902;9.204;2023-06-22T15:04:42;8.20;;;4.30;;
7142;SDS011;3613;48.902;9.204;2023-06-22T15:07:08;10.88;;;4.43;;
7142;SDS011;3613;48.902;9.204;2023-06-22T15:09:37;7.22;;;3.60;;
7142;SDS011;3613;48.902;9.204;2023-06-22T15:12:06;6.82;;;3.80;;
7142;SDS011;3613;48.902;9.204;2023-06-22T15:14:36;13.05;;;4.55;;
7142;SDS011;3613;48.902;9.204;2023-06-22T15:17:02;8.52;;;3.70;;
7142;SDS011;3613;48.902;9.204;2023-06-22T15:19:28;12.05;;;4.35;;